sensor_id;sensor_type;location;lat;lon;timestamp;temperature;humidity
54158;DHT22;40065;49.894;10.358;2023-04-01T00:03:33;10.10;99.90
54158;DHT22;40065;49.894;10.358;2023-04-01T00:08:35;10.20;99.90
54158;DHT22;40065;49.894;10.358;2023-04-01T00:13:37;10.30;99.90
54158;DHT22;40065;49.894;10.358;2023-04-01T00:18:39;10.40;99.90
54158;DHT22;40065;49.894;10.358;2023-04-01T00:23:40;10.40;99.90
54158;DHT22;40065;49.894;10.358;2023-04-01T00:28:43;10.30;99.90
54158;DHT22;40065;49.894;10.358;2023-04-01T00:33:44;10.30;99.90
54158;DHT22;40065;49.894;10.358;2023-04-01T00:38:47;10.50;99.90
54158;DHT22;40065;49.894;10.358;2023-04-01T00:43:50;10.50;99.90
54158;DHT22;40065;49.894;10.358;2023-04-01T00:48:54;10.50;99.90
54158;DHT22;40065;49.894;10.358;2023-04-01T00:53:58;10.50;99.90
54158;DHT22;40065;49.894;10.358;2023-04-01T00:59:16;10.50;99.90
54158;DHT22;40065;49.894;10.358;2023-04-01T01:04:25;10.50;99.90
54158;DHT22;40065;49.894;10.358;2023-04-01T01:09:38;10.60;99.90
54158;DHT22;40065;49.894;10.358;2023-04-01T01:30:51;10.60;99.90
54158;DHT22;40065;49.894;10.358;2023-04-01T01:36:01;10.50;99.90
54158;DHT22;40065;49.894;10.358;2023-04-01T01:41:07;10.50;99.90
54158;DHT22;40065;49.894;10.358;2023-04-01T01:46:19;10.40;99.90
54158;DHT22;40065;49.894;10.358;2023-04-01T01:51:23;10.30;99.90
54158;DHT22;40065;49.894;10.358;2023-04-01T01:56:28;10.30;99.90
54158;DHT22;40065;49.894;10.358;2023-04-01T02:01:35;10.30;99.90
54158;DHT22;40065;49.894;10.358;2023-04-01T02:06:50;10.30;99.90
54158;DHT22;40065;49.894;10.358;2023-04-01T02:12:03;10.30;99.90
54158;DHT22;40065;49.894;10.358;2023-04-01T02:17:14;10.30;99.90
54158;DHT22;40065;49.894;10.358;2023-04-01T02:22:21;10.20;99.90
54158;DHT22;40065;49.894;10.358;2023-04-01T02:27:24;10.30;99.90
54158;DHT22;40065;49.894;10.358;2023-04-01T02:32:26;10.40;99.90
54158;DHT22;40065;49.894;10.358;2023-04-01T02:37:29;10.30;99.90
54158;DHT22;40065;49.894;10.358;2023-04-01T02:42:34;10.20;99.90
54158;DHT22;40065;49.894;10.358;2023-04-01T02:47:36;10.20;99.90
54158;DHT22;40065;49.894;10.358;2023-04-01T02:52:38;10.20;99.90
54158;DHT22;40065;49.894;10.358;2023-04-01T02:57:40;10.20;99.90
54158;DHT22;40065;49.894;10.358;2023-04-01T03:02:41;10.10;99.90
54158;DHT22;40065;49.894;10.358;2023-04-01T03:07:43;10.20;99.90
54158;DHT22;40065;49.894;10.358;2023-04-01T03:12:45;10.20;99.90
54158;DHT22;40065;49.894;10.358;2023-04-01T03:17:47;10.20;99.90
54158;DHT22;40065;49.894;10.358;2023-04-01T03:22:49;10.10;99.90
54158;DHT22;40065;49.894;10.358;2023-04-01T03:27:51;10.10;99.90
54158;DHT22;40065;49.894;10.358;2023-04-01T03:32:53;10.10;99.90
54158;DHT22;40065;49.894;10.358;2023-04-01T03:37:55;10.00;99.90
54158;DHT22;40065;49.894;10.358;2023-04-01T03:42:57;10.10;99.90
54158;DHT22;40065;49.894;10.358;2023-04-01T03:47:59;10.20;99.90
54158;DHT22;40065;49.894;10.358;2023-04-01T03:53:01;10.20;99.90
54158;DHT22;40065;49.894;10.358;2023-04-01T03:58:04;10.20;99.90
54158;DHT22;40065;49.894;10.358;2023-04-01T04:03:06;10.30;99.90
54158;DHT22;40065;49.894;10.358;2023-04-01T04:08:09;10.30;99.90
54158;DHT22;40065;49.894;10.358;2023-04-01T04:13:11;10.30;99.90
54158;DHT22;40065;49.894;10.358;2023-04-01T04:18:20;10.30;99.90
54158;DHT22;40065;49.894;10.358;2023-04-01T04:23:22;10.30;99.90
54158;DHT22;40065;49.894;10.358;2023-04-01T04:28:26;10.30;99.90
54158;DHT22;40065;49.894;10.358;2023-04-01T04:33:29;10.20;99.90
54158;DHT22;40065;49.894;10.358;2023-04-01T04:38:31;10.30;99.90
54158;DHT22;40065;49.894;10.358;2023-04-01T04:43:33;10.40;99.90
54158;DHT22;40065;49.894;10.358;2023-04-01T04:48:36;10.30;99.90
54158;DHT22;40065;49.894;10.358;2023-04-01T04:53:38;10.30;99.90
54158;DHT22;40065;49.894;10.358;2023-04-01T04:58:40;10.30;99.90
54158;DHT22;40065;49.894;10.358;2023-04-01T05:03:44;10.40;99.90
54158;DHT22;40065;49.894;10.358;2023-04-01T05:08:47;10.30;99.90
54158;DHT22;40065;49.894;10.358;2023-04-01T05:13:48;10.30;99.90
54158;DHT22;40065;49.894;10.358;2023-04-01T05:18:51;10.20;99.90
54158;DHT22;40065;49.894;10.358;2023-04-01T05:23:53;10.20;99.90
54158;DHT22;40065;49.894;10.358;2023-04-01T05:28:56;10.20;99.90
54158;DHT22;40065;49.894;10.358;2023-04-01T05:33:57;10.20;99.90
54158;DHT22;40065;49.894;10.358;2023-04-01T05:38:59;10.20;99.90
54158;DHT22;40065;49.894;10.358;2023-04-01T05:44:04;10.30;99.90
54158;DHT22;40065;49.894;10.358;2023-04-01T05:49:15;10.20;99.90
54158;DHT22;40065;49.894;10.358;2023-04-01T05:54:18;10.20;99.90
54158;DHT22;40065;49.894;10.358;2023-04-01T05:59:20;10.30;99.90
54158;DHT22;40065;49.894;10.358;2023-04-01T06:04:22;10.20;99.90
54158;DHT22;40065;49.894;10.358;2023-04-01T06:09:27;10.30;99.90
54158;DHT22;40065;49.894;10.358;2023-04-01T06:14:44;10.30;99.90
54158;DHT22;40065;49.894;10.358;2023-04-01T06:20:16;10.30;99.90
54158;DHT22;40065;49.894;10.358;2023-04-01T06:25:26;10.30;99.90
54158;DHT22;40065;49.894;10.358;2023-04-01T06:30:45;10.30;99.90
54158;DHT22;40065;49.894;10.358;2023-04-01T06:46:48;10.80;99.90
54158;DHT22;40065;49.894;10.358;2023-04-01T06:52:19;10.60;99.90
54158;DHT22;40065;49.894;10.358;2023-04-01T06:57:47;10.60;99.90
54158;DHT22;40065;49.894;10.358;2023-04-01T07:08:03;10.70;99.90
54158;DHT22;40065;49.894;10.358;2023-04-01T07:13:13;10.70;99.90
54158;DHT22;40065;49.894;10.358;2023-04-01T07:18:50;10.70;99.90
54158;DHT22;40065;49.894;10.358;2023-04-01T07:24:01;10.90;99.90
54158;DHT22;40065;49.894;10.358;2023-04-01T07:29:13;10.80;99.90
54158;DHT22;40065;49.894;10.358;2023-04-01T07:34:34;11.00;99.90
54158;DHT22;40065;49.894;10.358;2023-04-01T07:50:34;11.10;99.90
54158;DHT22;40065;49.894;10.358;2023-04-01T08:01:23;10.90;99.90
54158;DHT22;40065;49.894;10.358;2023-04-01T08:06:52;10.80;99.90
54158;DHT22;40065;49.894;10.358;2023-04-01T08:28:36;10.90;99.90
54158;DHT22;40065;49.894;10.358;2023-04-01T08:33:44;10.80;99.90
54158;DHT22;40065;49.894;10.358;2023-04-01T08:39:05;10.30;99.90
54158;DHT22;40065;49.894;10.358;2023-04-01T08:44:21;10.20;99.90
54158;DHT22;40065;49.894;10.358;2023-04-01T08:49:45;10.00;99.90
54158;DHT22;40065;49.894;10.358;2023-04-01T09:00:57;9.90;99.90
54158;DHT22;40065;49.894;10.358;2023-04-01T09:06:25;10.10;99.90
54158;DHT22;40065;49.894;10.358;2023-04-01T09:22:56;10.20;99.90
54158;DHT22;40065;49.894;10.358;2023-04-01T09:28:12;10.20;99.90
54158;DHT22;40065;49.894;10.358;2023-04-01T09:33:23;10.20;99.90
54158;DHT22;40065;49.894;10.358;2023-04-01T09:38:56;10.40;99.90
54158;DHT22;40065;49.894;10.358;2023-04-01T09:50:21;10.50;99.90
54158;DHT22;40065;49.894;10.358;2023-04-01T10:05:48;10.50;99.90
54158;DHT22;40065;49.894;10.358;2023-04-01T10:33:21;10.70;99.90
54158;DHT22;40065;49.894;10.358;2023-04-01T10:50:24;10.70;99.90
54158;DHT22;40065;49.894;10.358;2023-04-01T11:02:00;11.10;99.90
54158;DHT22;40065;49.894;10.358;2023-04-01T11:36:07;12.30;99.90
54158;DHT22;40065;49.894;10.358;2023-04-01T11:41:40;12.40;99.90
54158;DHT22;40065;49.894;10.358;2023-04-01T12:03:21;12.00;99.90
54158;DHT22;40065;49.894;10.358;2023-04-01T12:08:49;11.70;99.90
54158;DHT22;40065;49.894;10.358;2023-04-01T12:19:56;11.60;99.90
54158;DHT22;40065;49.894;10.358;2023-04-01T12:25:22;11.90;99.90
54158;DHT22;40065;49.894;10.358;2023-04-01T12:30:43;12.10;99.90
54158;DHT22;40065;49.894;10.358;2023-04-01T12:47:16;11.80;99.90
54158;DHT22;40065;49.894;10.358;2023-04-01T12:58:00;11.80;99.90
54158;DHT22;40065;49.894;10.358;2023-04-01T13:03:39;11.90;99.90
54158;DHT22;40065;49.894;10.358;2023-04-01T13:09:07;12.00;99.90
54158;DHT22;40065;49.894;10.358;2023-04-01T13:14:43;12.00;99.90
54158;DHT22;40065;49.894;10.358;2023-04-01T13:20:02;11.80;99.90
54158;DHT22;40065;49.894;10.358;2023-04-01T13:30:47;11.50;99.90
54158;DHT22;40065;49.894;10.358;2023-04-01T13:41:32;11.80;99.90
54158;DHT22;40065;49.894;10.358;2023-04-01T14:13:59;11.60;99.90
54158;DHT22;40065;49.894;10.358;2023-04-01T14:19:08;11.70;99.90
54158;DHT22;40065;49.894;10.358;2023-04-01T14:24:36;11.80;99.90
54158;DHT22;40065;49.894;10.358;2023-04-01T14:29:59;11.80;99.90
54158;DHT22;40065;49.894;10.358;2023-04-01T14:51:38;11.70;99.90
54158;DHT22;40065;49.894;10.358;2023-04-01T14:56:43;11.80;99.90
54158;DHT22;40065;49.894;10.358;2023-04-01T15:12:43;11.50;99.90
54158;DHT22;40065;49.894;10.358;2023-04-01T15:17:58;11.40;99.90
54158;DHT22;40065;49.894;10.358;2023-04-01T15:28:26;11.60;99.90
54158;DHT22;40065;49.894;10.358;2023-04-01T15:33:44;11.50;99.90
54158;DHT22;40065;49.894;10.358;2023-04-01T15:38:49;11.40;99.90
54158;DHT22;40065;49.894;10.358;2023-04-01T15:43:52;11.20;99.90
54158;DHT22;40065;49.894;10.358;2023-04-01T15:49:01;11.00;99.90
54158;DHT22;40065;49.894;10.358;2023-04-01T15:54:23;10.90;99.90
54158;DHT22;40065;49.894;10.358;2023-04-01T16:20:25;10.90;99.90
54158;DHT22;40065;49.894;10.358;2023-04-01T16:25:45;10.90;99.90
54158;DHT22;40065;49.894;10.358;2023-04-01T16:42:10;11.00;99.90
54158;DHT22;40065;49.894;10.358;2023-04-01T16:47:19;11.00;99.90
54158;DHT22;40065;49.894;10.358;2023-04-01T16:52:42;11.00;99.90
54158;DHT22;40065;49.894;10.358;2023-04-01T16:58:08;10.90;99.90
54158;DHT22;40065;49.894;10.358;2023-04-01T17:03:29;10.70;99.90
54158;DHT22;40065;49.894;10.358;2023-04-01T17:19:36;10.70;99.90
54158;DHT22;40065;49.894;10.358;2023-04-01T17:24:58;10.60;99.90
54158;DHT22;40065;49.894;10.358;2023-04-01T17:30:17;10.60;99.90
54158;DHT22;40065;49.894;10.358;2023-04-01T17:35:48;10.70;99.90
54158;DHT22;40065;49.894;10.358;2023-04-01T17:40:57;10.60;99.90
54158;DHT22;40065;49.894;10.358;2023-04-01T17:47:11;10.50;99.90
54158;DHT22;40065;49.894;10.358;2023-04-01T18:08:13;10.50;99.90
54158;DHT22;40065;49.894;10.358;2023-04-01T18:23:51;10.40;99.90
54158;DHT22;40065;49.894;10.358;2023-04-01T18:34:47;10.40;99.90
54158;DHT22;40065;49.894;10.358;2023-04-01T18:39:57;10.30;99.90
54158;DHT22;40065;49.894;10.358;2023-04-01T18:45:21;10.30;99.90
54158;DHT22;40065;49.894;10.358;2023-04-01T18:50:30;10.40;99.90
54158;DHT22;40065;49.894;10.358;2023-04-01T18:55:39;10.30;99.90
54158;DHT22;40065;49.894;10.358;2023-04-01T19:06:26;10.40;99.90
54158;DHT22;40065;49.894;10.358;2023-04-01T19:11:42;10.40;99.90
54158;DHT22;40065;49.894;10.358;2023-04-01T19:17:14;10.40;99.90
54158;DHT22;40065;49.894;10.358;2023-04-01T19:27:53;10.40;99.90
54158;DHT22;40065;49.894;10.358;2023-04-01T20:04:27;10.30;99.90
54158;DHT22;40065;49.894;10.358;2023-04-01T20:14:50;9.70;99.90
54158;DHT22;40065;49.894;10.358;2023-04-01T20:25:16;10.00;99.90
54158;DHT22;40065;49.894;10.358;2023-04-01T20:36:05;10.00;99.90
54158;DHT22;40065;49.894;10.358;2023-04-01T20:46:48;10.00;99.90
54158;DHT22;40065;49.894;10.358;2023-04-01T20:57:21;9.90;99.90
54158;DHT22;40065;49.894;10.358;2023-04-01T21:02:54;9.80;99.90
54158;DHT22;40065;49.894;10.358;2023-04-01T21:08:02;9.80;99.90
54158;DHT22;40065;49.894;10.358;2023-04-01T21:40:18;9.90;99.90
54158;DHT22;40065;49.894;10.358;2023-04-01T22:07:20;9.80;99.90
54158;DHT22;40065;49.894;10.358;2023-04-01T22:18:16;9.90;99.90
54158;DHT22;40065;49.894;10.358;2023-04-01T22:23:27;9.90;99.90
54158;DHT22;40065;49.894;10.358;2023-04-01T22:28:40;10.00;99.90
54158;DHT22;40065;49.894;10.358;2023-04-01T22:34:01;10.00;99.90
54158;DHT22;40065;49.894;10.358;2023-04-01T22:39:28;10.00;99.90
54158;DHT22;40065;49.894;10.358;2023-04-01T22:44:46;10.00;99.90
54158;DHT22;40065;49.894;10.358;2023-04-01T22:50:03;10.00;99.90
54158;DHT22;40065;49.894;10.358;2023-04-01T23:00:33;10.10;99.90
54158;DHT22;40065;49.894;10.358;2023-04-01T23:05:37;10.00;99.90
54158;DHT22;40065;49.894;10.358;2023-04-01T23:10:50;9.90;99.90
54158;DHT22;40065;49.894;10.358;2023-04-01T23:15:54;10.00;99.90
54158;DHT22;40065;49.894;10.358;2023-04-01T23:21:06;10.00;99.90
54158;DHT22;40065;49.894;10.358;2023-04-01T23:31:38;10.00;99.90
54158;DHT22;40065;49.894;10.358;2023-04-01T23:36:43;10.00;99.90
54158;DHT22;40065;49.894;10.358;2023-04-01T23:41:45;9.90;99.90
54158;DHT22;40065;49.894;10.358;2023-04-01T23:46:47;9.90;99.90
54158;DHT22;40065;49.894;10.358;2023-04-01T23:51:56;10.00;99.90
54158;DHT22;40065;49.894;10.358;2023-04-01T23:57:04;10.00;99.90
